Time;durP1;ratioP1;P1;durP2;ratioP2;P2;SDS_P1;SDS_P2;PMS_P1;PMS_P2;Temp;Humidity;BMP_temperature;BMP_pressure;BME280_temperature;BME280_humidity;BME280_pressure;Samples;Min_cycle;Max_cycle;Signal;HPM_P1;HPM_P2
2022/08/09 00:00:06;;;;;;;;;;;;;;;27.64;49.43;100940.78;5069667;28;1228;-36
2022/08/09 00:02:33;;;;;;;;;;;;;;;27.66;48.21;100936.13;5069213;28;1323;-36
2022/08/09 00:05:01;;;;;;;;;;;;;;;27.79;48.54;100943.00;5071970;28;1258;-36
2022/08/09 00:07:48;;;;;;;;;;;;;;;27.74;48.58;100942.59;5066218;28;2187;-36
2022/08/09 00:10:17;;;;;;;;;;;;;;;27.82;47.84;100943.59;5073818;28;1064;-35
2022/08/09 00:12:50;;;;;;;;;;;;;;;27.74;48.46;100932.75;5074482;28;1918;-34
2022/08/09 00:15:21;;;;;;;;;;;;;;;27.83;48.05;100929.22;5074620;28;1167;-37
2022/08/09 00:18:08;;;;;;;;;;;;;;;27.83;46.36;100931.91;5075198;28;2184;-37
2022/08/09 00:20:38;;;;;;;;;;;;;;;27.78;47.24;100927.97;5075364;28;1057;-38
2022/08/09 00:23:16;;;;;;;;;;;;;;;27.67;47.80;100927.13;5075207;28;1730;-37
2022/08/09 00:26:03;;;;;;;;;;;;;;;27.64;48.04;100931.91;5075022;28;2438;-37
2022/08/09 00:28:30;;;;;;;;;;;;;;;27.63;48.06;100925.69;5075153;28;1184;-46
2022/08/09 00:31:00;;;;;;;;;;;;;;;27.55;48.49;100933.59;5077299;28;1063;-38
2022/08/09 00:33:47;;;;;;;;;;;;;;;27.44;49.08;100931.06;5076810;28;2349;-38
2022/08/09 00:36:17;;;;;;;;;;;;;;;27.40;49.01;100923.41;5075302;28;1064;-37
2022/08/09 00:38:44;;;;;;;;;;;;;;;27.44;48.80;100930.19;5073531;28;1208;-37
2022/08/09 00:41:12;;;;;;;;;;;;;;;27.51;48.58;100926.81;5074100;28;1060;-37
2022/08/09 00:43:59;;;;;;;;;;;;;;;27.58;48.60;100924.44;5074580;28;2171;-37
2022/08/09 00:46:46;;;;;;;;;;;;;;;27.64;48.42;100922.03;5074663;28;2148;-37
2022/08/09 00:49:30;;;;;;;;;;;;;;;27.66;48.11;100930.75;5075077;28;1084;-37
2022/08/09 00:51:58;;;;;;;;;;;;;;;27.70;48.09;100925.97;5074710;28;1981;-37
2022/08/09 00:54:32;;;;;;;;;;;;;;;27.73;47.91;100925.69;5074327;28;1136;-37
2022/08/09 00:57:02;;;;;;;;;;;;;;;27.77;48.13;100920.91;5072874;28;1292;-37
2022/08/09 00:59:35;;;;;;;;;;;;;;;27.79;47.83;100929.63;5072664;28;1150;-37
2022/08/09 01:02:14;;;;;;;;;;;;;;;27.84;47.58;100922.03;5072565;28;1810;-37
2022/08/09 01:04:48;;;;;;;;;;;;;;;27.82;47.49;100914.13;5072021;28;1072;-37
2022/08/09 01:07:21;;;;;;;;;;;;;;;27.77;47.93;100923.59;5072283;28;1350;-38
2022/08/09 01:10:07;;;;;;;;;;;;;;;27.64;48.07;100938.09;5073338;28;2209;-38
2022/08/09 01:12:34;;;;;;;;;;;;;;;27.58;48.25;100938.66;5074296;28;1985;-37
2022/08/09 01:15:05;;;;;;;;;;;;;;;27.60;48.18;100934.00;5074695;28;1136;-37
2022/08/09 01:17:54;;;;;;;;;;;;;;;27.63;48.14;100935.56;5074056;28;1269;-37
2022/08/09 01:20:38;;;;;;;;;;;;;;;27.59;48.32;100932.31;5072650;28;1100;-37
2022/08/09 01:23:11;;;;;;;;;;;;;;;27.56;48.57;100934.44;5072139;28;1260;-38
2022/08/09 01:26:07;;;;;;;;;;;;;;;27.54;48.81;100931.06;5071942;28;2316;-37
2022/08/09 01:28:34;;;;;;;;;;;;;;;27.47;49.02;100930.78;5072039;28;1703;-37
2022/08/09 01:31:03;;;;;;;;;;;;;;;27.62;48.83;100936.56;5070662;28;1092;-37
2022/08/09 01:33:35;;;;;;;;;;;;;;;27.56;48.95;100937.09;5071609;28;1914;-37
2022/08/09 01:36:04;;;;;;;;;;;;;;;27.59;49.08;100935.00;5072109;28;1100;-37
2022/08/09 01:38:38;;;;;;;;;;;;;;;27.51;49.35;100928.66;5073942;28;1362;-37
2022/08/09 01:41:08;;;;;;;;;;;;;;;27.62;49.39;100934.72;5073189;28;1080;-37
2022/08/09 01:43:38;;;;;;;;;;;;;;;27.58;49.32;100927.94;5073854;28;1187;-37
2022/08/09 01:46:24;;;;;;;;;;;;;;;27.50;49.87;100925.16;5073639;28;616;-37
2022/08/09 01:48:54;;;;;;;;;;;;;;;27.53;49.99;100930.22;5073546;28;1276;-36
2022/08/09 01:51:22;;;;;;;;;;;;;;;27.54;50.16;100925.72;5072505;28;1072;-37
2022/08/09 01:53:53;;;;;;;;;;;;;;;27.48;50.48;100920.91;5073715;28;1913;-37
2022/08/09 01:56:24;;;;;;;;;;;;;;;27.54;50.93;100920.38;5073838;28;1100;-37
2022/08/09 01:58:51;;;;;;;;;;;;;;;27.55;50.98;100924.72;5073871;28;1290;-37
2022/08/09 02:01:20;;;;;;;;;;;;;;;27.50;52.12;100917.13;5073187;28;867;-37
2022/08/09 02:04:08;;;;;;;;;;;;;;;27.49;52.58;100918.09;5073127;28;2759;-36
2022/08/09 02:09:29;;;;;;;;;;;;;;;27.47;49.93;100920.06;5073583;28;1079;-36
2022/08/09 02:12:09;;;;;;;;;;;;;;;27.40;49.51;100924.25;5073192;28;1902;-37
2022/08/09 02:14:45;;;;;;;;;;;;;;;27.30;49.74;100922.56;5073619;28;1156;-37
2022/08/09 02:17:17;;;;;;;;;;;;;;;27.30;50.25;100911.84;5072636;28;1459;-37
2022/08/09 02:20:04;;;;;;;;;;;;;;;27.37;50.12;100919.19;5073240;28;2254;-37
2022/08/09 02:22:34;;;;;;;;;;;;;;;27.34;50.25;100919.44;5072727;28;1295;-37
2022/08/09 02:25:03;;;;;;;;;;;;;;;27.39;50.24;100922.53;5072833;28;965;-37
2022/08/09 02:27:33;;;;;;;;;;;;;;;27.36;50.38;100913.97;5073100;28;1367;-37
2022/08/09 02:30:20;;;;;;;;;;;;;;;27.34;50.73;100922.13;5073585;28;2177;-37
2022/08/09 02:32:52;;;;;;;;;;;;;;;27.35;50.96;100917.63;5072978;28;1913;-37
2022/08/09 02:35:23;;;;;;;;;;;;;;;27.47;50.48;100920.06;5072772;28;1343;-37
2022/08/09 02:38:11;;;;;;;;;;;;;;;27.39;50.63;100911.84;5072969;28;2226;-37
2022/08/09 02:40:57;;;;;;;;;;;;;;;27.32;50.76;100905.38;5073070;28;1214;-37
2022/08/09 02:43:25;;;;;;;;;;;;;;;27.32;50.86;100910.72;5072907;28;1314;-37
2022/08/09 02:45:55;;;;;;;;;;;;;;;27.35;50.75;100902.44;5073118;28;1317;-37
2022/08/09 02:48:22;;;;;;;;;;;;;;;27.46;50.22;100910.34;5072825;28;1313;-37
2022/08/09 02:50:58;;;;;;;;;;;;;;;27.53;49.80;100910.63;5073143;28;1100;-37
2022/08/09 02:53:32;;;;;;;;;;;;;;;27.40;50.49;100910.88;5072931;28;1910;-37
2022/08/09 02:56:01;;;;;;;;;;;;;;;27.33;50.08;100916.94;5073329;28;1087;-37
2022/08/09 02:58:28;;;;;;;;;;;;;;;27.47;49.76;100920.06;5072838;28;1303;-37
2022/08/09 03:01:04;;;;;;;;;;;;;;;27.73;43.79;100912.31;5072788;28;1005;-37
2022/08/09 03:03:34;;;;;;;;;;;;;;;27.83;42.41;100904.28;5072832;28;1302;-37
2022/08/09 03:06:21;;;;;;;;;;;;;;;27.78;42.70;100906.56;5072424;28;2153;-37
2022/08/09 03:08:50;;;;;;;;;;;;;;;27.79;42.76;100903.72;5072750;28;1292;-37
2022/08/09 03:11:19;;;;;;;;;;;;;;;27.86;41.81;100904.00;5072505;28;770;-37
2022/08/09 03:14:07;;;;;;;;;;;;;;;27.71;42.85;100905.41;5071689;28;1910;-37
2022/08/09 03:16:36;;;;;;;;;;;;;;;27.77;42.57;100908.38;5072638;28;1033;-37
2022/08/09 03:19:11;;;;;;;;;;;;;;;27.77;42.65;100911.06;5072571;28;1397;-37
2022/08/09 03:21:58;;;;;;;;;;;;;;;27.69;42.99;100897.56;5071286;28;2396;-37
2022/08/09 03:24:24;;;;;;;;;;;;;;;27.61;43.25;100910.78;5072722;28;1037;-37
2022/08/09 03:27:08;;;;;;;;;;;;;;;27.57;42.74;100899.50;5072650;28;1284;-37
2022/08/09 03:29:37;;;;;;;;;;;;;;;27.65;42.61;100896.97;5075611;28;1033;-37
2022/08/09 03:32:24;;;;;;;;;;;;;;;27.60;42.92;100909.91;5076079;28;2173;-37
2022/08/09 03:34:51;;;;;;;;;;;;;;;27.49;43.32;100895.84;5075987;28;1176;-37
2022/08/09 03:37:21;;;;;;;;;;;;;;;27.44;43.53;100906.13;5075741;28;1233;-37
2022/08/09 03:40:09;;;;;;;;;;;;;;;27.42;43.53;100902.72;5076619;28;2014;-37
2022/08/09 03:42:38;;;;;;;;;;;;;;;27.31;43.81;100903.69;5076093;28;1284;-37
2022/08/09 03:45:08;;;;;;;;;;;;;;;27.32;43.76;100905.38;5075834;28;1590;-37
2022/08/09 03:47:35;;;;;;;;;;;;;;;27.47;43.71;100903.16;5075762;28;1178;-37
2022/08/09 03:50:08;;;;;;;;;;;;;;;27.48;43.75;100908.38;5076416;28;1132;-37
2022/08/09 03:52:37;;;;;;;;;;;;;;;27.29;44.63;100904.81;5075902;28;1991;-38
2022/08/09 03:55:04;;;;;;;;;;;;;;;27.27;45.98;100904.13;5076387;28;1142;-36
2022/08/09 03:57:35;;;;;;;;;;;;;;;27.27;47.42;100910.28;5075823;28;1367;-37
2022/08/09 04:00:22;;;;;;;;;;;;;;;27.24;48.88;100907.06;5075773;28;2167;-37
2022/08/09 04:02:48;;;;;;;;;;;;;;;27.21;50.14;100910.84;5075798;28;1220;-37
2022/08/09 04:05:19;;;;;;;;;;;;;;;27.28;50.16;100914.66;5075891;28;1096;-37
2022/08/09 04:07:53;;;;;;;;;;;;;;;27.26;50.14;100908.63;5075341;28;1531;-35
2022/08/09 04:10:23;;;;;;;;;;;;;;;27.15;50.46;100908.72;5055520;28;1064;-36
2022/08/09 04:12:55;;;;;;;;;;;;;;;27.14;50.67;100912.38;5055467;28;1918;-36
2022/08/09 04:15:23;;;;;;;;;;;;;;;27.12;50.56;100909.00;5055605;28;1032;-37
2022/08/09 04:18:10;;;;;;;;;;;;;;;27.23;50.22;100916.91;5055559;28;2299;-37
2022/08/09 04:20:45;;;;;;;;;;;;;;;27.13;50.73;100910.69;5054234;28;1107;-36
2022/08/09 04:23:12;;;;;;;;;;;;;;;27.11;51.03;100913.47;5055206;28;1209;-37
2022/08/09 04:25:42;;;;;;;;;;;;;;;27.13;51.06;100916.03;5055472;28;1265;-36
2022/08/09 04:28:09;;;;;;;;;;;;;;;27.13;51.56;100922.22;5054828;28;1218;-37
2022/08/09 04:30:37;;;;;;;;;;;;;;;27.20;51.53;100924.34;5054426;28;1041;-37
2022/08/09 04:33:10;;;;;;;;;;;;;;;27.14;51.95;100921.25;5054933;28;1910;-36
2022/08/09 04:35:39;;;;;;;;;;;;;;;27.11;52.41;100924.19;5055053;28;1703;-36
2022/08/09 04:38:07;;;;;;;;;;;;;;;27.09;52.44;100931.50;5054968;28;1304;-37
2022/08/09 04:40:49;;;;;;;;;;;;;;;27.10;52.82;100932.34;5054744;28;1021;-37
2022/08/09 04:43:22;;;;;;;;;;;;;;;27.06;53.05;100939.78;5054902;28;1363;-37
2022/08/09 04:45:50;;;;;;;;;;;;;;;26.98;53.01;100934.28;5055034;28;1210;-37
2022/08/09 04:48:19;;;;;;;;;;;;;;;27.00;53.03;100939.50;5055070;28;1303;-37
2022/08/09 04:50:49;;;;;;;;;;;;;;;27.10;52.72;100941.22;5054756;28;804;-36
2022/08/09 04:53:15;;;;;;;;;;;;;;;27.07;52.97;100944.16;5054673;28;1989;-36
2022/08/09 04:55:42;;;;;;;;;;;;;;;27.10;52.68;100948.41;5054638;28;1056;-36
2022/08/09 04:58:28;;;;;;;;;;;;;;;27.12;52.50;100952.63;5054551;28;1563;-36
2022/08/09 05:00:58;;;;;;;;;;;;;;;27.02;52.71;100951.72;5055139;28;1618;-36
2022/08/09 05:03:26;;;;;;;;;;;;;;;27.03;52.80;100952.59;5063173;28;1268;-36
2022/08/09 05:06:12;;;;;;;;;;;;;;;27.04;52.42;100955.13;5067612;28;1033;-36
2022/08/09 05:08:54;;;;;;;;;;;;;;;27.19;50.85;100958.28;5054223;28;1315;-36
2022/08/09 05:11:27;;;;;;;;;;;;;;;27.28;46.37;100949.44;5054355;28;1060;-37
2022/08/09 05:13:58;;;;;;;;;;;;;;;27.26;46.14;100947.88;5054187;28;1988;-37
2022/08/09 05:16:24;;;;;;;;;;;;;;;27.22;46.68;100949.97;5054190;28;1056;-37
2022/08/09 05:18:57;;;;;;;;;;;;;;;27.20;48.24;100945.75;5069050;28;1441;-36
2022/08/09 05:21:26;;;;;;;;;;;;;;;27.10;50.48;100953.75;5053683;28;1238;-36
2022/08/09 05:24:02;;;;;;;;;;;;;;;27.11;50.62;100958.13;5053625;28;1328;-37
2022/08/09 05:26:31;;;;;;;;;;;;;;;27.13;50.05;100953.47;5054073;28;1045;-36
2022/08/09 05:29:12;;;;;;;;;;;;;;;27.10;50.90;100953.75;5053912;28;1130;-36
2022/08/09 05:31:47;;;;;;;;;;;;;;;27.12;50.35;100949.94;5053949;28;1272;-37
2022/08/09 05:34:23;;;;;;;;;;;;;;;27.07;50.65;100957.53;5053570;28;1984;-37
2022/08/09 05:36:58;;;;;;;;;;;;;;;27.03;50.86;100958.78;5053969;28;1280;-36
2022/08/09 05:39:27;;;;;;;;;;;;;;;27.07;50.38;100965.56;5054099;28;1079;-36
2022/08/09 05:42:02;;;;;;;;;;;;;;;27.01;50.54;100970.59;5068134;28;1300;-35
2022/08/09 05:44:31;;;;;;;;;;;;;;;26.95;50.33;100969.31;5068551;28;1582;-36
2022/08/09 05:47:01;;;;;;;;;;;;;;;26.98;50.73;100968.19;5053596;28;1197;-36
2022/08/09 05:49:31;;;;;;;;;;;;;;;27.01;50.45;100971.44;5053405;28;1126;-37
2022/08/09 05:52:18;;;;;;;;;;;;;;;27.08;50.17;100977.09;5052599;28;1816;-37
2022/08/09 05:54:45;;;;;;;;;;;;;;;27.11;49.98;100976.84;5053765;28;1992;-37
2022/08/09 05:57:14;;;;;;;;;;;;;;;27.14;49.54;100977.41;5053512;28;1196;-37
2022/08/09 05:59:44;;;;;;;;;;;;;;;27.28;47.77;100978.00;5053699;28;1112;-37
2022/08/09 06:02:11;;;;;;;;;;;;;;;27.26;47.94;100980.81;5053198;28;1318;-38
2022/08/09 06:04:44;;;;;;;;;;;;;;;27.40;46.66;100976.91;5067763;28;1081;-37
2022/08/09 06:07:11;;;;;;;;;;;;;;;27.40;47.55;100985.78;5053102;28;1327;-37
2022/08/09 06:09:47;;;;;;;;;;;;;;;27.45;46.58;100982.72;5052956;28;1118;-37
2022/08/09 06:12:28;;;;;;;;;;;;;;;27.42;48.05;100982.97;5053201;28;1379;-36
2022/08/09 06:14:55;;;;;;;;;;;;;;;27.41;48.07;100979.44;5053188;28;1981;-37
2022/08/09 06:17:26;;;;;;;;;;;;;;;27.51;47.26;100991.03;5053100;28;1713;-36
2022/08/09 06:20:06;;;;;;;;;;;;;;;27.57;46.59;100990.47;5053487;28;1110;-37
2022/08/09 06:22:33;;;;;;;;;;;;;;;27.56;46.34;100991.47;5053140;28;1208;-37
2022/08/09 06:25:01;;;;;;;;;;;;;;;27.66;45.53;100988.81;5053134;28;1178;-37
2022/08/09 06:27:27;;;;;;;;;;;;;;;27.78;44.83;101001.09;5052409;28;1207;-36
2022/08/09 06:30:08;;;;;;;;;;;;;;;27.82;44.82;100993.59;5053149;28;1140;-37
2022/08/09 06:32:35;;;;;;;;;;;;;;;27.87;44.60;100994.03;5052688;28;1298;-36
2022/08/09 06:35:22;;;;;;;;;;;;;;;27.92;44.52;100997.97;5065027;28;2330;-38
2022/08/09 06:38:08;;;;;;;;;;;;;;;27.98;44.24;101004.59;5052569;28;2359;-36
2022/08/09 06:40:36;;;;;;;;;;;;;;;27.97;44.10;101002.91;5052803;28;1140;-38
2022/08/09 06:43:06;;;;;;;;;;;;;;;27.99;44.13;101000.94;5053006;28;1264;-37
2022/08/09 06:45:36;;;;;;;;;;;;;;;28.03;43.46;101011.22;5052988;28;982;-37
2022/08/09 06:48:23;;;;;;;;;;;;;;;28.09;43.62;101007.16;5053043;28;2321;-37
2022/08/09 06:50:57;;;;;;;;;;;;;;;28.07;43.67;101014.50;5053196;28;1029;-38
2022/08/09 06:53:23;;;;;;;;;;;;;;;28.11;43.60;101029.31;5052610;28;1913;-37
2022/08/09 06:55:50;;;;;;;;;;;;;;;28.21;43.43;101032.78;5052906;28;1100;-37
2022/08/09 06:58:17;;;;;;;;;;;;;;;28.21;43.75;101033.66;5052641;28;1225;-36
2022/08/09 07:01:04;;;;;;;;;;;;;;;27.91;44.86;101043.63;5051231;28;2194;-36
2022/08/09 07:03:33;;;;;;;;;;;;;;;28.00;45.22;101053.47;5055379;28;1215;-37
2022/08/09 07:06:16;;;;;;;;;;;;;;;27.79;45.94;101061.63;5056281;28;1101;-37
2022/08/09 07:08:44;;;;;;;;;;;;;;;27.53;47.91;101073.84;5055896;28;1199;-37
2022/08/09 07:11:12;;;;;;;;;;;;;;;27.51;49.00;101071.28;5056402;28;1146;-36
2022/08/09 07:13:48;;;;;;;;;;;;;;;27.45;50.64;101065.66;5056507;28;1977;-37
2022/08/09 07:16:32;;;;;;;;;;;;;;;27.35;51.86;101067.41;5056517;28;1107;-37
2022/08/09 07:19:14;;;;;;;;;;;;;;;27.44;51.57;101063.97;5056636;28;1132;-37
2022/08/09 07:21:49;;;;;;;;;;;;;;;27.50;50.86;101068.78;5057715;28;1366;-43
2022/08/09 07:24:25;;;;;;;;;;;;;;;27.53;50.12;101066.66;5054966;28;1037;-36
2022/08/09 07:26:58;;;;;;;;;;;;;;;27.63;49.56;101067.53;5056278;28;1276;-35
2022/08/09 07:29:26;;;;;;;;;;;;;;;27.90;48.94;101068.72;5056073;28;1126;-36
2022/08/09 07:32:03;;;;;;;;;;;;;;;27.76;49.33;101063.75;5055710;28;1257;-36
2022/08/09 07:34:31;;;;;;;;;;;;;;;27.90;49.18;101071.38;5055036;28;1922;-38
2022/08/09 07:36:59;;;;;;;;;;;;;;;27.85;49.48;101068.25;5056429;28;1295;-37
2022/08/09 07:39:28;;;;;;;;;;;;;;;28.05;48.96;101070.03;5056049;28;1138;-37
2022/08/09 07:42:07;;;;;;;;;;;;;;;28.05;50.91;101076.25;5055693;28;1347;-37
2022/08/09 07:44:34;;;;;;;;;;;;;;;28.06;51.75;101066.34;5055375;28;1013;-37
2022/08/09 07:47:19;;;;;;;;;;;;;;;28.17;51.73;101068.91;5055639;28;1279;-37
2022/08/09 07:49:46;;;;;;;;;;;;;;;28.21;51.46;101071.16;5055784;28;1130;-36
2022/08/09 07:52:31;;;;;;;;;;;;;;;28.15;52.17;101076.22;5055586;28;1284;-37
2022/08/09 07:54:59;;;;;;;;;;;;;;;28.27;51.71;101072.41;5055501;28;1997;-37
2022/08/09 07:57:25;;;;;;;;;;;;;;;28.29;51.53;101073.13;5055552;28;1194;-37
2022/08/09 08:00:01;;;;;;;;;;;;;;;28.35;49.43;101075.25;5055553;28;1029;-37
2022/08/09 08:02:29;;;;;;;;;;;;;;;28.42;48.49;101078.22;5054903;28;1299;-35
2022/08/09 08:04:56;;;;;;;;;;;;;;;28.40;48.92;101072.97;5055185;28;1123;-36
2022/08/09 08:07:24;;;;;;;;;;;;;;;28.50;47.46;101079.19;5055396;28;1293;-36
2022/08/09 08:10:11;;;;;;;;;;;;;;;28.54;47.55;101072.56;5055732;28;2305;-35
2022/08/09 08:12:40;;;;;;;;;;;;;;;28.52;47.11;101077.19;5054927;28;1302;-36
2022/08/09 08:15:11;;;;;;;;;;;;;;;28.46;47.68;101077.78;5053702;28;1987;-36
2022/08/09 08:17:39;;;;;;;;;;;;;;;28.57;47.63;101072.28;5054066;28;1323;-36
2022/08/09 08:20:21;;;;;;;;;;;;;;;28.80;47.17;101074.66;5070582;28;1127;-36
2022/08/09 08:22:59;;;;;;;;;;;;;;;28.78;47.17;101073.94;5069588;28;1366;-35
2022/08/09 08:25:46;;;;;;;;;;;;;;;28.86;46.73;101074.06;5073007;28;1072;-35
2022/08/09 08:28:16;;;;;;;;;;;;;;;28.66;47.83;101076.81;5073755;28;1378;-35
2022/08/09 08:30:51;;;;;;;;;;;;;;;28.63;48.21;101077.06;5074459;28;1096;-35
2022/08/09 08:33:18;;;;;;;;;;;;;;;28.70;48.01;101078.19;5053417;28;1233;-36
2022/08/09 08:35:50;;;;;;;;;;;;;;;28.85;48.00;101091.97;5073717;28;1983;-35
2022/08/09 08:38:26;;;;;;;;;;;;;;;28.94;47.12;101090.28;5054242;28;1256;-35
2022/08/09 08:40:54;;;;;;;;;;;;;;;28.95;47.38;101083.91;5054495;28;1051;-35
2022/08/09 08:43:22;;;;;;;;;;;;;;;28.97;48.28;101090.00;5074068;28;1212;-35
2022/08/09 08:45:50;;;;;;;;;;;;;;;28.96;50.07;101081.09;5073007;28;1215;-36
2022/08/09 08:48:30;;;;;;;;;;;;;;;28.92;51.58;101101.16;5073975;28;1296;-33
2022/08/09 08:50:57;;;;;;;;;;;;;;;28.94;51.64;101090.28;5074047;28;1015;-35
2022/08/09 08:53:24;;;;;;;;;;;;;;;28.97;53.56;101090.81;5073958;28;1181;-36
2022/08/09 08:56:03;;;;;;;;;;;;;;;29.09;54.41;101095.00;5073675;28;1108;-36
2022/08/09 08:58:31;;;;;;;;;;;;;;;29.15;54.59;101104.34;5074239;28;1205;-34
2022/08/09 09:01:02;;;;;;;;;;;;;;;29.20;55.30;101110.09;5073984;28;1055;-34
2022/08/09 09:03:35;;;;;;;;;;;;;;;29.28;54.21;101111.09;5073930;28;1334;-34
2022/08/09 09:06:04;;;;;;;;;;;;;;;29.29;54.59;101101.22;5073239;28;1010;-35
2022/08/09 09:08:33;;;;;;;;;;;;;;;29.33;54.41;101102.63;5074279;28;1236;-35
2022/08/09 09:11:06;;;;;;;;;;;;;;;29.48;53.46;101106.50;5072754;28;1065;-35
2022/08/09 09:13:38;;;;;;;;;;;;;;;29.48;53.46;101103.81;5066018;28;1691;-35
2022/08/09 09:16:21;;;;;;;;;;;;;;;29.49;53.33;101102.81;5057001;28;1092;-35
2022/08/09 09:18:57;;;;;;;;;;;;;;;29.39;54.42;101103.84;5073610;28;1343;-33
2022/08/09 09:22:03;;;;;;;;;;;;;;;29.39;54.30;101102.03;5072782;28;2176;-34
2022/08/09 09:24:39;;;;;;;;;;;;;;;29.37;54.76;101101.31;5073604;28;1079;-35
2022/08/09 09:27:10;;;;;;;;;;;;;;;29.32;55.51;101106.28;5072292;28;1315;-34
2022/08/09 09:30:07;;;;;;;;;;;;;;;29.23;56.01;101107.13;5072518;28;2291;-35
2022/08/09 09:33:11;;;;;;;;;;;;;;;29.16;58.02;101112.22;5071051;28;1324;-34
2022/08/09 09:35:52;;;;;;;;;;;;;;;29.35;57.00;101107.81;5072302;28;1980;-35
2022/08/09 09:38:45;;;;;;;;;;;;;;;29.45;55.47;101106.78;5067279;28;1425;-35
2022/08/09 09:41:21;;;;;;;;;;;;;;;29.56;54.82;101106.59;5055931;28;1059;-35
2022/08/09 09:43:49;;;;;;;;;;;;;;;29.51;55.56;101103.53;5093999;28;1604;-35
2022/08/09 09:46:37;;;;;;;;;;;;;;;29.56;55.12;101105.75;5067791;28;1496;-35
2022/08/09 09:49:11;;;;;;;;;;;;;;;29.58;56.05;101104.59;5072875;28;1549;-35
2022/08/09 09:51:38;;;;;;;;;;;;;;;29.58;55.66;101107.28;5071315;28;1021;-36
2022/08/09 09:54:14;;;;;;;;;;;;;;;29.52;56.18;101112.38;5071927;28;1913;-35
2022/08/09 09:56:48;;;;;;;;;;;;;;;29.56;56.15;101119.16;5067916;28;1334;-35
2022/08/09 09:59:35;;;;;;;;;;;;;;;29.51;56.69;101127.66;5072391;28;1993;-35
2022/08/09 10:02:01;;;;;;;;;;;;;;;29.55;57.08;101117.47;5064965;28;1468;-35
2022/08/09 10:04:28;;;;;;;;;;;;;;;29.62;56.59;101118.56;5051555;28;1040;-36
2022/08/09 10:06:57;;;;;;;;;;;;;;;29.75;54.45;101117.22;5059008;28;1394;-34
2022/08/09 10:09:45;;;;;;;;;;;;;;;29.60;54.26;101121.41;5070739;28;1096;-35
2022/08/09 10:12:22;;;;;;;;;;;;;;;29.76;54.52;101126.97;5070534;28;1347;-35
2022/08/09 10:15:21;;;;;;;;;;;;;;;29.74;56.08;101123.59;5070198;28;1993;-35
2022/08/09 10:18:11;;;;;;;;;;;;;;;29.89;52.24;101125.78;5070367;28;2140;-35
2022/08/09 10:20:38;;;;;;;;;;;;;;;29.84;52.94;101125.41;5072091;28;1009;-34
2022/08/09 10:23:15;;;;;;;;;;;;;;;29.80;52.77;101120.31;5071651;28;1240;-35
2022/08/09 10:25:47;;;;;;;;;;;;;;;29.65;51.50;101124.47;5072250;28;1049;-35
2022/08/09 10:28:34;;;;;;;;;;;;;;;29.92;51.21;101122.78;5051809;28;2173;-35
2022/08/09 10:31:01;;;;;;;;;;;;;;;30.05;51.99;101120.59;5052655;28;1725;-35
2022/08/09 10:33:48;;;;;;;;;;;;;;;30.04;50.87;101126.97;5071419;28;1756;-35
2022/08/09 10:36:35;;;;;;;;;;;;;;;29.84;51.60;101128.09;5070852;28;2201;-34
2022/08/09 10:39:02;;;;;;;;;;;;;;;30.01;53.31;101128.13;5071754;28;1197;-34
2022/08/09 10:41:41;;;;;;;;;;;;;;;30.12;52.00;101132.44;5071670;28;999;-35
2022/08/09 10:44:08;;;;;;;;;;;;;;;29.92;51.46;101123.66;5071664;28;1430;-35
2022/08/09 10:46:44;;;;;;;;;;;;;;;29.93;51.93;101119.97;5071259;28;1655;-35
2022/08/09 10:49:28;;;;;;;;;;;;;;;30.09;51.09;101124.69;5061974;28;1143;-34
2022/08/09 10:52:42;;;;;;;;;;;;;;;30.19;50.70;101120.06;5068470;28;1534;-35
2022/08/09 10:55:20;;;;;;;;;;;;;;;30.07;51.21;101113.22;5059760;28;1914;-35
2022/08/09 10:57:49;;;;;;;;;;;;;;;30.02;50.53;101115.53;5064939;28;1363;-35
2022/08/09 11:00:38;;;;;;;;;;;;;;;30.31;46.11;101116.16;5069097;28;981;-44
2022/08/09 11:03:26;;;;;;;;;;;;;;;30.46;44.64;101108.44;5068629;28;1323;-33
2022/08/09 11:06:21;;;;;;;;;;;;;;;30.81;41.49;101114.59;5068341;28;2225;-34
2022/08/09 11:08:49;;;;;;;;;;;;;;;30.87;41.24;101115.81;5068734;28;1422;-35
2022/08/09 11:11:20;;;;;;;;;;;;;;;30.79;41.19;101111.22;5068466;28;1036;-33
2022/08/09 11:14:07;;;;;;;;;;;;;;;30.87;40.85;101111.28;5069030;28;1316;-32
2022/08/09 11:16:41;;;;;;;;;;;;;;;31.20;40.75;101106.97;5068633;28;1080;-34
2022/08/09 11:19:12;;;;;;;;;;;;;;;31.25;37.24;101106.50;5069129;28;1144;-32
2022/08/09 11:21:52;;;;;;;;;;;;;;;31.43;39.19;101110.78;5068312;28;1170;-36
2022/08/09 11:24:50;;;;;;;;;;;;;;;31.52;38.53;101103.66;5069244;28;1132;-36
2022/08/09 11:27:30;;;;;;;;;;;;;;;31.33;38.19;101095.78;5067989;28;1248;-31
2022/08/09 11:30:17;;;;;;;;;;;;;;;31.30;37.39;101099.63;5068973;28;2396;-36
2022/08/09 11:33:17;;;;;;;;;;;;;;;31.44;37.78;101100.88;5068355;28;1422;-38
2022/08/09 11:36:04;;;;;;;;;;;;;;;31.28;37.63;101101.63;5064316;28;1906;-39
2022/08/09 11:38:33;;;;;;;;;;;;;;;31.25;38.29;101099.25;5067355;28;1272;-39
2022/08/09 11:41:10;;;;;;;;;;;;;;;31.25;38.77;101095.75;5068409;28;980;-38
2022/08/09 11:43:40;;;;;;;;;;;;;;;31.29;38.64;101091.72;5093935;28;1252;-40
2022/08/09 11:46:08;;;;;;;;;;;;;;;31.35;39.70;101091.06;5061370;28;1408;-38
2022/08/09 11:48:52;;;;;;;;;;;;;;;31.23;37.74;101098.59;5068705;28;1502;-35
2022/08/09 11:51:20;;;;;;;;;;;;;;;31.26;38.51;101098.25;5072266;28;1031;-39
2022/08/09 11:54:17;;;;;;;;;;;;;;;31.29;38.96;101102.47;5071108;28;2297;-36
2022/08/09 11:57:16;;;;;;;;;;;;;;;31.54;37.55;101098.09;5067829;28;1339;-40
2022/08/09 11:59:53;;;;;;;;;;;;;;;31.53;38.45;101099.94;5072372;28;1104;-43
2022/08/09 12:02:21;;;;;;;;;;;;;;;31.36;38.31;101099.00;5071682;28;1775;-32
2022/08/09 12:05:06;;;;;;;;;;;;;;;31.41;38.71;101099.34;5071938;28;1161;-39
2022/08/09 12:07:43;;;;;;;;;;;;;;;31.41;38.09;101098.50;5069816;28;1331;-38
2022/08/09 12:10:11;;;;;;;;;;;;;;;31.57;37.49;101097.75;5071249;28;1166;-33
2022/08/09 12:12:59;;;;;;;;;;;;;;;31.46;38.61;101104.25;5070591;28;2489;-37
2022/08/09 12:15:46;;;;;;;;;;;;;;;31.51;39.49;101090.34;5070761;28;2244;-37
2022/08/09 12:18:17;;;;;;;;;;;;;;;30.99;40.94;101092.22;5070019;28;1332;-37
2022/08/09 12:20:56;;;;;;;;;;;;;;;31.62;40.75;101084.63;5069696;28;961;-33
2022/08/09 12:23:28;;;;;;;;;;;;;;;31.59;39.34;101088.50;5071195;28;1300;-36
2022/08/09 12:26:14;;;;;;;;;;;;;;;31.58;39.50;101081.47;5071502;28;2257;-34
2022/08/09 12:28:53;;;;;;;;;;;;;;;31.28;39.98;101090.03;5071224;28;1291;-34
2022/08/09 12:31:41;;;;;;;;;;;;;;;31.54;38.91;101082.78;5063895;28;2332;-38
2022/08/09 12:34:41;;;;;;;;;;;;;;;31.17;38.92;101083.06;5069527;28;2189;-38
2022/08/09 12:37:09;;;;;;;;;;;;;;;31.34;39.17;101084.84;5066589;28;1343;-37
2022/08/09 12:39:58;;;;;;;;;;;;;;;31.16;40.28;101086.75;5067223;28;1480;-37
2022/08/09 12:42:26;;;;;;;;;;;;;;;31.23;40.99;101084.28;5066546;28;1414;-39
2022/08/09 12:44:55;;;;;;;;;;;;;;;31.41;41.51;101088.56;5067876;28;1222;-39
2022/08/09 12:47:24;;;;;;;;;;;;;;;31.05;40.25;101080.81;5070793;28;1387;-38
2022/08/09 12:52:37;;;;;;;;;;;;;;;31.12;39.90;101069.28;5070052;28;1421;-42
2022/08/09 12:55:27;;;;;;;;;;;;;;;31.32;40.44;101069.84;5070376;28;1914;-37
2022/08/09 12:58:14;;;;;;;;;;;;;;;30.90;42.68;101069.78;5070396;28;2220;-41
2022/08/09 13:00:49;;;;;;;;;;;;;;;31.06;42.42;101069.06;5054234;28;1093;-40
2022/08/09 13:03:25;;;;;;;;;;;;;;;31.16;41.48;101065.25;5070081;28;1303;-44
2022/08/09 13:06:22;;;;;;;;;;;;;;;31.35;40.85;101059.63;5067536;28;2218;-37
2022/08/09 13:08:59;;;;;;;;;;;;;;;31.23;41.55;101054.69;5075203;28;1303;-37
2022/08/09 13:11:30;;;;;;;;;;;;;;;31.18;41.83;101057.03;5072004;28;1020;-40
2022/08/09 13:13:57;;;;;;;;;;;;;;;31.67;41.19;101055.38;5074682;28;1307;-41
2022/08/09 13:16:50;;;;;;;;;;;;;;;31.48;40.40;101048.41;5069378;28;2291;-38
2022/08/09 13:19:25;;;;;;;;;;;;;;;31.18;41.49;101046.25;5070102;28;1107;-37
2022/08/09 13:22:15;;;;;;;;;;;;;;;31.40;40.59;101043.00;5065292;28;2391;-40
2022/08/09 13:25:02;;;;;;;;;;;;;;;31.45;41.03;101027.19;5070414;28;2234;-41
2022/08/09 13:27:33;;;;;;;;;;;;;;;31.08;41.60;101029.38;5069777;28;1248;-39
2022/08/09 13:30:14;;;;;;;;;;;;;;;31.15;42.20;101028.59;5070318;28;1169;-39
2022/08/09 13:33:01;;;;;;;;;;;;;;;31.40;43.14;101034.91;5070326;28;2969;-35
2022/08/09 13:35:28;;;;;;;;;;;;;;;31.43;43.51;101034.59;5069732;28;1910;-39